sensor_id;sensor_type;location;lat;lon;timestamp;pressure;altitude;pressure_sealevel;temperature;humidity
81865;BME280;71313;43.514;1.500;2023-10-13T00:00:41;100103.19;;;22.45;62.71
81865;BME280;71313;43.514;1.500;2023-10-13T00:03:08;100107.97;;;22.43;63.81
81865;BME280;71313;43.514;1.500;2023-10-13T00:05:45;100106.25;;;22.42;63.27
81865;BME280;71313;43.514;1.500;2023-10-13T00:08:11;100102.19;;;22.38;63.74
81865;BME280;71313;43.514;1.500;2023-10-13T00:10:38;100100.47;;;22.37;62.71
81865;BME280;71313;43.514;1.500;2023-10-13T00:13:05;100105.09;;;22.36;63.73
81865;BME280;71313;43.514;1.500;2023-10-13T00:15:47;100107.28;;;22.41;62.42
81865;BME280;71313;43.514;1.500;2023-10-13T00:18:30;100116.69;;;22.38;63.25
81865;BME280;71313;43.514;1.500;2023-10-13T00:21:02;100118.22;;;22.41;63.53
81865;BME280;71313;43.514;1.500;2023-10-13T00:23:37;100116.53;;;22.40;63.42
81865;BME280;71313;43.514;1.500;2023-10-13T00:26:04;100121.47;;;22.44;62.45
81865;BME280;71313;43.514;1.500;2023-10-13T00:28:34;100122.84;;;22.40;63.37
81865;BME280;71313;43.514;1.500;2023-10-13T00:31:23;100109.06;;;22.25;64.03
81865;BME280;71313;43.514;1.500;2023-10-13T00:33:48;100114.69;;;22.24;63.29
81865;BME280;71313;43.514;1.500;2023-10-13T00:36:16;100115.91;;;22.13;64.54
81865;BME280;71313;43.514;1.500;2023-10-13T00:38:47;100123.44;;;22.03;65.01
81865;BME280;71313;43.514;1.500;2023-10-13T00:41:15;100114.53;;;21.93;65.36
81865;BME280;71313;43.514;1.500;2023-10-13T00:43:49;100116.94;;;21.88;65.38
81865;BME280;71313;43.514;1.500;2023-10-13T00:46:34;100114.22;;;21.88;65.75
81865;BME280;71313;43.514;1.500;2023-10-13T00:49:03;100118.66;;;21.89;64.74
81865;BME280;71313;43.514;1.500;2023-10-13T00:51:35;100118.66;;;21.89;65.28
81865;BME280;71313;43.514;1.500;2023-10-13T00:54:02;100114.22;;;21.88;64.60
81865;BME280;71313;43.514;1.500;2023-10-13T00:56:32;100111.47;;;21.88;65.71
81865;BME280;71313;43.514;1.500;2023-10-13T00:58:59;100115.59;;;21.84;65.68
81865;BME280;71313;43.514;1.500;2023-10-13T01:01:28;100113.88;;;21.83;65.95
81865;BME280;71313;43.514;1.500;2023-10-13T01:03:55;100119.69;;;21.80;65.14
81865;BME280;71313;43.514;1.500;2023-10-13T01:06:25;100109.09;;;21.77;65.20
81865;BME280;71313;43.514;1.500;2023-10-13T01:09:01;100113.53;;;21.69;66.11
81865;BME280;71313;43.514;1.500;2023-10-13T01:11:37;100115.09;;;21.64;66.51
81865;BME280;71313;43.514;1.500;2023-10-13T01:14:03;100096.13;;;21.62;65.84
81865;BME280;71313;43.514;1.500;2023-10-13T01:16:29;100097.69;;;21.57;66.30
81865;BME280;71313;43.514;1.500;2023-10-13T01:18:58;100098.53;;;21.57;67.31
81865;BME280;71313;43.514;1.500;2023-10-13T01:21:28;100098.19;;;21.60;67.39
81865;BME280;71313;43.514;1.500;2023-10-13T01:23:57;100086.41;;;21.60;67.58
81865;BME280;71313;43.514;1.500;2023-10-13T01:26:24;100081.81;;;21.60;66.32
81865;BME280;71313;43.514;1.500;2023-10-13T01:28:58;100086.75;;;21.57;66.46
81865;BME280;71313;43.514;1.500;2023-10-13T01:31:44;100078.38;;;21.58;67.01
81865;BME280;71313;43.514;1.500;2023-10-13T01:34:16;100070.88;;;21.60;66.66
81865;BME280;71313;43.514;1.500;2023-10-13T01:36:51;100073.78;;;21.59;67.06
81865;BME280;71313;43.514;1.500;2023-10-13T01:39:19;100076.34;;;21.60;66.41
81865;BME280;71313;43.514;1.500;2023-10-13T01:41:46;100073.28;;;21.55;66.76
81865;BME280;71313;43.514;1.500;2023-10-13T01:44:22;100064.41;;;21.53;67.18
81865;BME280;71313;43.514;1.500;2023-10-13T01:46:47;100064.41;;;21.53;67.16
81865;BME280;71313;43.514;1.500;2023-10-13T01:49:15;100057.56;;;21.57;67.34
81865;BME280;71313;43.514;1.500;2023-10-13T01:51:43;100063.72;;;21.59;67.53
81865;BME280;71313;43.514;1.500;2023-10-13T01:54:13;100062.69;;;21.60;67.07
81865;BME280;71313;43.514;1.500;2023-10-13T01:56:41;100052.78;;;21.59;66.79
81865;BME280;71313;43.514;1.500;2023-10-13T01:59:12;100056.19;;;21.61;66.64
81865;BME280;71313;43.514;1.500;2023-10-13T02:01:39;100049.03;;;21.60;67.24
81865;BME280;71313;43.514;1.500;2023-10-13T02:04:07;100052.44;;;21.62;66.78
81865;BME280;71313;43.514;1.500;2023-10-13T02:06:34;100037.75;;;21.63;66.42
81865;BME280;71313;43.514;1.500;2023-10-13T02:09:10;100034.00;;;21.64;66.33
81865;BME280;71313;43.514;1.500;2023-10-13T02:11:44;100034.34;;;21.61;66.46
81865;BME280;71313;43.514;1.500;2023-10-13T02:14:13;100034.03;;;21.48;66.65
81865;BME280;71313;43.514;1.500;2023-10-13T02:16:41;100035.41;;;21.36;67.66
81865;BME280;71313;43.514;1.500;2023-10-13T02:19:07;100033.34;;;21.38;66.90
81865;BME280;71313;43.514;1.500;2023-10-13T02:21:36;100033.34;;;21.38;67.18
81865;BME280;71313;43.514;1.500;2023-10-13T02:24:06;100025.00;;;21.39;67.37
81865;BME280;71313;43.514;1.500;2023-10-13T02:26:38;100028.56;;;21.32;66.96
81865;BME280;71313;43.514;1.500;2023-10-13T02:29:07;100021.75;;;21.28;67.42
81865;BME280;71313;43.514;1.500;2023-10-13T02:31:37;100016.28;;;21.28;67.95
81865;BME280;71313;43.514;1.500;2023-10-13T02:34:03;100013.22;;;21.23;67.77
81865;BME280;71313;43.514;1.500;2023-10-13T02:36:34;100011.84;;;21.27;67.95
81865;BME280;71313;43.514;1.500;2023-10-13T02:39:12;100004.88;;;21.24;67.97
81865;BME280;71313;43.514;1.500;2023-10-13T02:41:39;100004.88;;;21.24;67.96
81865;BME280;71313;43.514;1.500;2023-10-13T02:44:06;100001.75;;;21.19;67.54
81865;BME280;71313;43.514;1.500;2023-10-13T02:46:34;100008.75;;;21.14;67.36
81865;BME280;71313;43.514;1.500;2023-10-13T02:49:05;100011.47;;;21.05;67.86
81865;BME280;71313;43.514;1.500;2023-10-13T02:51:37;100006.53;;;21.01;68.37
81865;BME280;71313;43.514;1.500;2023-10-13T02:54:08;100000.41;;;21.07;67.50
81865;BME280;71313;43.514;1.500;2023-10-13T02:56:38;100002.63;;;21.03;67.84
81865;BME280;71313;43.514;1.500;2023-10-13T02:59:15;99997.84;;;21.05;68.10
81865;BME280;71313;43.514;1.500;2023-10-13T03:01:42;99994.75;;;20.92;68.57
81865;BME280;71313;43.514;1.500;2023-10-13T03:04:10;99986.91;;;20.97;67.87
81865;BME280;71313;43.514;1.500;2023-10-13T03:06:40;99992.38;;;20.97;68.63
81865;BME280;71313;43.514;1.500;2023-10-13T03:09:10;99989.66;;;20.97;68.41
81865;BME280;71313;43.514;1.500;2023-10-13T03:11:47;99983.50;;;20.95;67.81
81865;BME280;71313;43.514;1.500;2023-10-13T03:14:19;99983.16;;;20.98;67.78
81865;BME280;71313;43.514;1.500;2023-10-13T03:16:52;99979.75;;;20.96;68.91
81865;BME280;71313;43.514;1.500;2023-10-13T03:19:17;99980.97;;;21.02;68.84
81865;BME280;71313;43.514;1.500;2023-10-13T03:21:47;99976.69;;;20.99;68.18
81865;BME280;71313;43.514;1.500;2023-10-13T03:24:31;99975.66;;;21.00;68.98
81865;BME280;71313;43.514;1.500;2023-10-13T03:27:02;99980.63;;;20.97;68.50
81865;BME280;71313;43.514;1.500;2023-10-13T03:29:38;99970.56;;;20.97;69.35
81865;BME280;71313;43.514;1.500;2023-10-13T03:32:11;99966.13;;;20.96;69.20
81865;BME280;71313;43.514;1.500;2023-10-13T03:34:47;99967.81;;;21.05;68.79
81865;BME280;71313;43.514;1.500;2023-10-13T03:37:25;99969.88;;;21.12;69.09
81865;BME280;71313;43.514;1.500;2023-10-13T03:40:10;99970.91;;;21.11;68.50
81865;BME280;71313;43.514;1.500;2023-10-13T03:42:47;99959.63;;;21.14;68.22
81865;BME280;71313;43.514;1.500;2023-10-13T03:45:37;99959.13;;;21.10;68.75
81865;BME280;71313;43.514;1.500;2023-10-13T03:48:13;99951.97;;;21.09;68.30
81865;BME280;71313;43.514;1.500;2023-10-13T03:51:01;99955.22;;;21.04;69.64
81865;BME280;71313;43.514;1.500;2023-10-13T03:53:38;99952.47;;;21.04;69.58
81865;BME280;71313;43.514;1.500;2023-10-13T03:56:18;99948.56;;;21.07;69.03
81865;BME280;71313;43.514;1.500;2023-10-13T03:59:11;99946.69;;;21.07;68.52
81865;BME280;71313;43.514;1.500;2023-10-13T04:01:41;99947.72;;;21.06;68.76
81865;BME280;71313;43.514;1.500;2023-10-13T04:04:16;99945.66;;;21.00;69.15
81865;BME280;71313;43.514;1.500;2023-10-13T04:07:04;99940.22;;;20.92;69.56
81865;BME280;71313;43.514;1.500;2023-10-13T04:09:36;99943.63;;;20.94;69.74
81865;BME280;71313;43.514;1.500;2023-10-13T04:14:37;99946.00;;;21.05;69.63
81865;BME280;71313;43.514;1.500;2023-10-13T04:17:22;99941.75;;;21.03;69.70
81865;BME280;71313;43.514;1.500;2023-10-13T04:19:59;99932.03;;;21.00;69.60
81865;BME280;71313;43.514;1.500;2023-10-13T04:22:34;99934.25;;;21.05;69.20
81865;BME280;71313;43.514;1.500;2023-10-13T04:27:56;99930.66;;;21.04;69.66
81865;BME280;71313;43.514;1.500;2023-10-13T04:30:49;99942.06;;;21.08;70.11
81865;BME280;71313;43.514;1.500;2023-10-13T04:33:33;99943.94;;;21.07;69.04
81865;BME280;71313;43.514;1.500;2023-10-13T04:36:18;99933.38;;;21.04;70.44
81865;BME280;71313;43.514;1.500;2023-10-13T04:38:56;99951.78;;;21.11;69.39
81865;BME280;71313;43.514;1.500;2023-10-13T04:41:36;99938.16;;;21.11;68.94
81865;BME280;71313;43.514;1.500;2023-10-13T04:44:16;99944.63;;;21.10;69.17
81865;BME280;71313;43.514;1.500;2023-10-13T04:47:01;99947.69;;;21.15;69.16
81865;BME280;71313;43.514;1.500;2023-10-13T04:49:31;99942.56;;;21.20;68.46
81865;BME280;71313;43.514;1.500;2023-10-13T04:52:01;99944.28;;;21.21;69.55
81865;BME280;71313;43.514;1.500;2023-10-13T04:54:43;99937.97;;;21.20;69.27
81865;BME280;71313;43.514;1.500;2023-10-13T04:57:18;99950.75;;;21.20;69.95
81865;BME280;71313;43.514;1.500;2023-10-13T05:00:04;99951.97;;;21.17;69.56
81865;BME280;71313;43.514;1.500;2023-10-13T05:02:38;99959.28;;;21.17;69.53
81865;BME280;71313;43.514;1.500;2023-10-13T05:05:14;99957.06;;;21.20;69.84
81865;BME280;71313;43.514;1.500;2023-10-13T05:07:40;99959.16;;;21.26;69.17
81865;BME280;71313;43.514;1.500;2023-10-13T05:10:41;99957.06;;;21.20;69.98
81865;BME280;71313;43.514;1.500;2023-10-13T05:13:25;99951.47;;;21.22;69.89
81865;BME280;71313;43.514;1.500;2023-10-13T05:16:09;99958.66;;;21.23;69.21
81865;BME280;71313;43.514;1.500;2023-10-13T05:18:55;99956.41;;;21.26;69.38
81865;BME280;71313;43.514;1.500;2023-10-13T05:21:39;99953.69;;;21.26;68.51
81865;BME280;71313;43.514;1.500;2023-10-13T05:24:24;99953.69;;;21.26;69.24
81865;BME280;71313;43.514;1.500;2023-10-13T05:27:10;99950.78;;;21.28;69.28
81865;BME280;71313;43.514;1.500;2023-10-13T05:29:56;99946.69;;;21.24;69.44
81865;BME280;71313;43.514;1.500;2023-10-13T05:32:40;99943.63;;;21.27;69.41
81865;BME280;71313;43.514;1.500;2023-10-13T05:35:25;99941.91;;;21.26;69.02
81865;BME280;71313;43.514;1.500;2023-10-13T05:38:09;99937.16;;;21.28;69.66
81865;BME280;71313;43.514;1.500;2023-10-13T05:41:00;99945.50;;;21.26;70.03
81865;BME280;71313;43.514;1.500;2023-10-13T05:43:45;99938.16;;;21.27;69.93
81865;BME280;71313;43.514;1.500;2023-10-13T05:46:29;99942.28;;;21.23;70.18
81865;BME280;71313;43.514;1.500;2023-10-13T05:49:14;99946.19;;;21.28;69.59
81865;BME280;71313;43.514;1.500;2023-10-13T05:51:40;99939.53;;;21.31;69.64
81865;BME280;71313;43.514;1.500;2023-10-13T05:54:13;99947.22;;;21.27;69.79
81865;BME280;71313;43.514;1.500;2023-10-13T05:56:45;99943.97;;;21.32;69.67
81865;BME280;71313;43.514;1.500;2023-10-13T05:59:32;99950.09;;;21.34;69.62
81865;BME280;71313;43.514;1.500;2023-10-13T06:02:19;99953.50;;;21.36;69.62
81865;BME280;71313;43.514;1.500;2023-10-13T06:05:05;99945.16;;;21.37;70.00
81865;BME280;71313;43.514;1.500;2023-10-13T06:07:50;99952.13;;;21.40;70.10
81865;BME280;71313;43.514;1.500;2023-10-13T06:10:36;99953.50;;;21.44;69.99
81865;BME280;71313;43.514;1.500;2023-10-13T06:13:20;99951.44;;;21.46;69.39
81865;BME280;71313;43.514;1.500;2023-10-13T06:16:08;99957.94;;;21.45;70.42
81865;BME280;71313;43.514;1.500;2023-10-13T06:18:52;99961.34;;;21.47;71.00
81865;BME280;71313;43.514;1.500;2023-10-13T06:21:36;99953.81;;;21.49;70.30
81865;BME280;71313;43.514;1.500;2023-10-13T06:24:37;99952.78;;;21.50;70.16
81865;BME280;71313;43.514;1.500;2023-10-13T06:27:21;99955.19;;;21.53;70.67
81865;BME280;71313;43.514;1.500;2023-10-13T06:30:05;99960.28;;;21.56;70.65
81865;BME280;71313;43.514;1.500;2023-10-13T06:32:32;99958.91;;;21.60;70.66
81865;BME280;71313;43.514;1.500;2023-10-13T06:34:58;99961.31;;;21.63;70.08
81865;BME280;71313;43.514;1.500;2023-10-13T06:37:30;99961.97;;;21.65;70.91
81865;BME280;71313;43.514;1.500;2023-10-13T06:40:01;99968.13;;;21.67;71.06
81865;BME280;71313;43.514;1.500;2023-10-13T06:42:50;99968.78;;;21.69;70.11
81865;BME280;71313;43.514;1.500;2023-10-13T06:45:17;99964.00;;;21.71;69.88
81865;BME280;71313;43.514;1.500;2023-10-13T06:47:43;99978.00;;;21.77;70.86
81865;BME280;71313;43.514;1.500;2023-10-13T06:50:14;99975.25;;;21.77;70.28
81865;BME280;71313;43.514;1.500;2023-10-13T06:52:46;99977.66;;;21.80;70.97
81865;BME280;71313;43.514;1.500;2023-10-13T06:55:15;99982.25;;;21.79;70.88
81865;BME280;71313;43.514;1.500;2023-10-13T06:58:06;99977.66;;;21.80;70.43
81865;BME280;71313;43.514;1.500;2023-10-13T07:00:32;99976.97;;;21.78;70.46
81865;BME280;71313;43.514;1.500;2023-10-13T07:03:04;99969.94;;;21.83;70.87
81865;BME280;71313;43.514;1.500;2023-10-13T07:05:43;99971.47;;;21.86;70.07
81865;BME280;71313;43.514;1.500;2023-10-13T07:08:12;99976.59;;;21.89;70.07
81865;BME280;71313;43.514;1.500;2023-10-13T07:10:52;99982.56;;;21.92;69.90
81865;BME280;71313;43.514;1.500;2023-10-13T07:13:31;99983.91;;;21.96;71.17
81865;BME280;71313;43.514;1.500;2023-10-13T07:16:03;99981.00;;;21.98;70.52
81865;BME280;71313;43.514;1.500;2023-10-13T07:18:37;99989.00;;;21.99;70.27
81865;BME280;71313;43.514;1.500;2023-10-13T07:21:12;99985.78;;;22.04;69.82
81865;BME280;71313;43.514;1.500;2023-10-13T07:23:38;99981.31;;;22.11;70.54
81865;BME280;71313;43.514;1.500;2023-10-13T07:26:05;99986.06;;;22.17;70.17
81865;BME280;71313;43.514;1.500;2023-10-13T07:28:35;99983.00;;;22.20;70.17
81865;BME280;71313;43.514;1.500;2023-10-13T07:31:15;99989.47;;;22.19;70.05
81865;BME280;71313;43.514;1.500;2023-10-13T07:33:41;99989.00;;;22.16;70.69
81865;BME280;71313;43.514;1.500;2023-10-13T07:36:08;99991.53;;;22.17;70.39
81865;BME280;71313;43.514;1.500;2023-10-13T07:38:53;99993.59;;;22.15;69.89
81865;BME280;71313;43.514;1.500;2023-10-13T07:41:47;99988.50;;;22.12;69.97
81865;BME280;71313;43.514;1.500;2023-10-13T07:44:23;99994.63;;;22.14;70.33
81865;BME280;71313;43.514;1.500;2023-10-13T07:46:54;99994.47;;;22.08;70.40
81865;BME280;71313;43.514;1.500;2023-10-13T07:49:32;99988.00;;;22.09;69.87
81865;BME280;71313;43.514;1.500;2023-10-13T07:52:04;99998.91;;;22.09;69.69
81865;BME280;71313;43.514;1.500;2023-10-13T07:54:50;99998.91;;;22.09;70.44
81865;BME280;71313;43.514;1.500;2023-10-13T07:57:37;99999.28;;;22.06;69.54
81865;BME280;71313;43.514;1.500;2023-10-13T08:00:19;99984.91;;;22.12;69.87
81865;BME280;71313;43.514;1.500;2023-10-13T08:03:05;100001.97;;;22.14;70.45
81865;BME280;71313;43.514;1.500;2023-10-13T08:05:40;100009.66;;;22.18;70.38
81865;BME280;71313;43.514;1.500;2023-10-13T08:08:22;100003.47;;;22.24;70.10
81865;BME280;71313;43.514;1.500;2023-10-13T08:10:51;100004.31;;;22.25;69.64
81865;BME280;71313;43.514;1.500;2023-10-13T08:13:21;100011.47;;;22.34;69.91
81865;BME280;71313;43.514;1.500;2023-10-13T08:15:47;100011.09;;;22.37;69.35
81865;BME280;71313;43.514;1.500;2023-10-13T08:18:14;100022.84;;;22.46;69.66
81865;BME280;71313;43.514;1.500;2023-10-13T08:21:02;100015.63;;;22.53;69.45
81865;BME280;71313;43.514;1.500;2023-10-13T08:23:32;100019.72;;;22.57;69.33
81865;BME280;71313;43.514;1.500;2023-10-13T08:26:25;100019.97;;;22.70;69.15
81865;BME280;71313;43.514;1.500;2023-10-13T08:29:12;100019.72;;;22.88;68.77
81865;BME280;71313;43.514;1.500;2023-10-13T08:31:51;100018.09;;;23.02;68.52
81865;BME280;71313;43.514;1.500;2023-10-13T08:34:29;100017.00;;;23.11;68.17
81865;BME280;71313;43.514;1.500;2023-10-13T08:36:55;100013.09;;;23.28;67.10
81865;BME280;71313;43.514;1.500;2023-10-13T08:39:21;100010.56;;;23.41;66.85
81865;BME280;71313;43.514;1.500;2023-10-13T08:42:06;100008.22;;;23.53;66.60
81865;BME280;71313;43.514;1.500;2023-10-13T08:44:45;100002.22;;;23.57;66.00
81865;BME280;71313;43.514;1.500;2023-10-13T08:47:19;99999.75;;;23.62;66.07
81865;BME280;71313;43.514;1.500;2023-10-13T08:49:50;100001.66;;;23.77;65.61
81865;BME280;71313;43.514;1.500;2023-10-13T08:52:37;99995.16;;;23.92;65.27
81865;BME280;71313;43.514;1.500;2023-10-13T08:55:11;99994.22;;;24.00;64.58
81865;BME280;71313;43.514;1.500;2023-10-13T08:57:57;99986.16;;;24.13;64.68
81865;BME280;71313;43.514;1.500;2023-10-13T09:00:38;99989.66;;;24.22;64.71
81865;BME280;71313;43.514;1.500;2023-10-13T09:03:41;99990.72;;;24.36;64.08
81865;BME280;71313;43.514;1.500;2023-10-13T09:06:13;99982.56;;;24.42;63.26
81865;BME280;71313;43.514;1.500;2023-10-13T09:08:45;99985.38;;;24.49;63.49
81865;BME280;71313;43.514;1.500;2023-10-13T09:11:35;99974.97;;;24.59;63.02
81865;BME280;71313;43.514;1.500;2023-10-13T09:14:18;99979.41;;;24.60;62.83
81865;BME280;71313;43.514;1.500;2023-10-13T09:17:04;99976.66;;;24.60;62.42
81865;BME280;71313;43.514;1.500;2023-10-13T09:19:48;99977.13;;;24.64;61.72
81865;BME280;71313;43.514;1.500;2023-10-13T09:22:27;99984.50;;;24.63;62.26
81865;BME280;71313;43.514;1.500;2023-10-13T09:24:59;99991.41;;;24.59;62.36
81865;BME280;71313;43.514;1.500;2023-10-13T09:27:29;99986.31;;;24.56;62.45
81865;BME280;71313;43.514;1.500;2023-10-13T09:29:59;99984.88;;;24.60;62.62
81865;BME280;71313;43.514;1.500;2023-10-13T09:32:44;99980.19;;;24.75;61.79
81865;BME280;71313;43.514;1.500;2023-10-13T09:35:25;99981.25;;;24.96;61.69
81865;BME280;71313;43.514;1.500;2023-10-13T09:37:55;99985.72;;;25.18;61.70
81865;BME280;71313;43.514;1.500;2023-10-13T09:40:23;99977.47;;;25.39;60.81
81865;BME280;71313;43.514;1.500;2023-10-13T09:43:14;99976.38;;;25.62;59.92
81865;BME280;71313;43.514;1.500;2023-10-13T09:45:48;99985.38;;;25.77;59.19
81865;BME280;71313;43.514;1.500;2023-10-13T09:48:36;99974.88;;;25.87;59.03
81865;BME280;71313;43.514;1.500;2023-10-13T09:51:12;99979.81;;;25.98;58.40
81865;BME280;71313;43.514;1.500;2023-10-13T09:53:43;99972.00;;;26.08;58.03
81865;BME280;71313;43.514;1.500;2023-10-13T09:56:21;99982.59;;;26.11;58.39
81865;BME280;71313;43.514;1.500;2023-10-13T09:59:08;99999.97;;;26.18;57.56
81865;BME280;71313;43.514;1.500;2023-10-13T10:01:40;99985.81;;;26.21;57.12
81865;BME280;71313;43.514;1.500;2023-10-13T10:04:16;99990.38;;;26.36;56.75
81865;BME280;71313;43.514;1.500;2023-10-13T10:06:56;99973.25;;;26.47;56.22
81865;BME280;71313;43.514;1.500;2023-10-13T10:09:32;99980.75;;;26.66;56.09
81865;BME280;71313;43.514;1.500;2023-10-13T10:17:27;99982.34;;;27.22;54.40
81865;BME280;71313;43.514;1.500;2023-10-13T10:19:56;99978.31;;;27.24;53.97
81865;BME280;71313;43.514;1.500;2023-10-13T10:22:33;99975.38;;;27.39;53.94
81865;BME280;71313;43.514;1.500;2023-10-13T10:25:06;99986.81;;;27.42;53.58
81865;BME280;71313;43.514;1.500;2023-10-13T10:27:32;99978.13;;;27.45;52.98
81865;BME280;71313;43.514;1.500;2023-10-13T10:30:01;99974.94;;;27.48;52.56
81865;BME280;71313;43.514;1.500;2023-10-13T10:32:37;99957.53;;;27.55;52.17
81865;BME280;71313;43.514;1.500;2023-10-13T10:35:10;99963.31;;;27.60;51.87
81865;BME280;71313;43.514;1.500;2023-10-13T10:37:48;99962.00;;;27.69;51.96
81865;BME280;71313;43.514;1.500;2023-10-13T10:40:16;99966.44;;;27.76;51.03
81865;BME280;71313;43.514;1.500;2023-10-13T10:42:59;99966.88;;;27.80;50.86
81865;BME280;71313;43.514;1.500;2023-10-13T10:45:29;99965.97;;;27.99;50.48
81865;BME280;71313;43.514;1.500;2023-10-13T10:47:59;99978.22;;;28.17;49.61
81865;BME280;71313;43.514;1.500;2023-10-13T10:50:26;99966.34;;;28.16;49.36
81865;BME280;71313;43.514;1.500;2023-10-13T10:53:05;99970.59;;;28.19;48.99
81865;BME280;71313;43.514;1.500;2023-10-13T10:55:36;99973.75;;;28.29;48.57
81865;BME280;71313;43.514;1.500;2023-10-13T10:58:03;99973.75;;;28.35;48.66
81865;BME280;71313;43.514;1.500;2023-10-13T11:00:35;99977.91;;;28.51;48.72
81865;BME280;71313;43.514;1.500;2023-10-13T11:03:22;99967.22;;;28.61;47.92
81865;BME280;71313;43.514;1.500;2023-10-13T11:05:48;99975.16;;;28.89;47.96
81865;BME280;71313;43.514;1.500;2023-10-13T11:08:23;99972.88;;;29.43;46.44
81865;BME280;71313;43.514;1.500;2023-10-13T11:11:00;99968.13;;;29.93;45.63
81865;BME280;71313;43.514;1.500;2023-10-13T11:13:38;99966.94;;;30.25;45.63
81865;BME280;71313;43.514;1.500;2023-10-13T11:16:09;99957.59;;;30.56;43.78
81865;BME280;71313;43.514;1.500;2023-10-13T11:18:37;99958.19;;;30.77;43.52
81865;BME280;71313;43.514;1.500;2023-10-13T11:21:06;99958.06;;;31.13;42.23
81865;BME280;71313;43.514;1.500;2023-10-13T11:23:34;99949.16;;;31.35;42.26
81865;BME280;71313;43.514;1.500;2023-10-13T11:26:02;99958.22;;;31.65;42.28
81865;BME280;71313;43.514;1.500;2023-10-13T11:28:31;99939.16;;;31.45;41.88
81865;BME280;71313;43.514;1.500;2023-10-13T11:31:02;99947.13;;;31.18;42.98
81865;BME280;71313;43.514;1.500;2023-10-13T11:33:44;99948.19;;;31.29;42.50
81865;BME280;71313;43.514;1.500;2023-10-13T11:36:15;99935.44;;;31.51;42.25
81865;BME280;71313;43.514;1.500;2023-10-13T11:38:48;99937.91;;;32.35;40.34
81865;BME280;71313;43.514;1.500;2023-10-13T11:41:15;99938.72;;;33.20;40.14
81865;BME280;71313;43.514;1.500;2023-10-13T11:43:51;99927.84;;;34.08;37.79
81865;BME280;71313;43.514;1.500;2023-10-13T11:46:24;99932.16;;;34.86;36.43
81865;BME280;71313;43.514;1.500;2023-10-13T11:49:09;99930.66;;;35.05;36.02
81865;BME280;71313;43.514;1.500;2023-10-13T11:51:44;99926.56;;;34.37;37.38
81865;BME280;71313;43.514;1.500;2023-10-13T11:54:23;99918.91;;;33.67;36.99
81865;BME280;71313;43.514;1.500;2023-10-13T11:56:52;99923.50;;;33.40;37.67
81865;BME280;71313;43.514;1.500;2023-10-13T11:59:17;99910.19;;;32.80;38.02
81865;BME280;71313;43.514;1.500;2023-10-13T12:01:50;99907.63;;;33.57;38.10
81865;BME280;71313;43.514;1.500;2023-10-13T12:04:36;99907.81;;;33.34;37.34
81865;BME280;71313;43.514;1.500;2023-10-13T12:07:10;99910.16;;;33.08;39.13
81865;BME280;71313;43.514;1.500;2023-10-13T12:09:39;99895.63;;;33.73;38.01
81865;BME280;71313;43.514;1.500;2023-10-13T12:12:21;99894.94;;;34.75;35.92
81865;BME280;71313;43.514;1.500;2023-10-13T12:14:48;99896.94;;;35.39;35.18
81865;BME280;71313;43.514;1.500;2023-10-13T12:17:26;99893.53;;;35.32;34.51
81865;BME280;71313;43.514;1.500;2023-10-13T12:20:02;99884.78;;;34.91;35.32
81865;BME280;71313;43.514;1.500;2023-10-13T12:22:36;99893.22;;;34.96;35.26
81865;BME280;71313;43.514;1.500;2023-10-13T12:25:07;99878.63;;;35.53;34.87
81865;BME280;71313;43.514;1.500;2023-10-13T12:28:01;99876.88;;;35.84;33.49
81865;BME280;71313;43.514;1.500;2023-10-13T12:30:49;99881.41;;;36.93;32.44
81865;BME280;71313;43.514;1.500;2023-10-13T12:33:16;99869.91;;;38.41;29.90
81865;BME280;71313;43.514;1.500;2023-10-13T12:36:01;99864.88;;;39.50;28.57
81865;BME280;71313;43.514;1.500;2023-10-13T12:38:41;99870.56;;;39.40;28.55
81865;BME280;71313;43.514;1.500;2023-10-13T12:41:16;99875.34;;;38.71;29.12
81865;BME280;71313;43.514;1.500;2023-10-13T12:44:06;99856.84;;;38.21;28.96
81865;BME280;71313;43.514;1.500;2023-10-13T12:46:54;99851.31;;;37.95;29.36
81865;BME280;71313;43.514;1.500;2023-10-13T12:49:40;99848.88;;;37.74;30.12
81865;BME280;71313;43.514;1.500;2023-10-13T12:52:11;99842.78;;;37.36;30.94
81865;BME280;71313;43.514;1.500;2023-10-13T12:54:47;99844.47;;;37.01;31.01
81865;BME280;71313;43.514;1.500;2023-10-13T12:57:30;99848.94;;;36.77;29.90
81865;BME280;71313;43.514;1.500;2023-10-13T12:59:59;99839.41;;;36.73;30.57
81865;BME280;71313;43.514;1.500;2023-10-13T13:02:29;99846.16;;;37.08;29.21
81865;BME280;71313;43.514;1.500;2023-10-13T13:04:58;99852.53;;;37.69;29.31
81865;BME280;71313;43.514;1.500;2023-10-13T13:07:40;99832.94;;;37.54;28.41
81865;BME280;71313;43.514;1.500;2023-10-13T13:10:13;99835.50;;;37.15;29.66
81865;BME280;71313;43.514;1.500;2023-10-13T13:12:42;99827.09;;;36.69;29.37
81865;BME280;71313;43.514;1.500;2023-10-13T13:15:07;99827.06;;;36.43;29.50
81865;BME280;71313;43.514;1.500;2023-10-13T13:17:40;99831.28;;;35.78;30.39
81865;BME280;71313;43.514;1.500;2023-10-13T13:20:07;99820.47;;;35.40;31.21
81865;BME280;71313;43.514;1.500;2023-10-13T13:22:53;99820.34;;;36.45;31.05
81865;BME280;71313;43.514;1.500;2023-10-13T13:25:22;99825.06;;;37.76;28.71
81865;BME280;71313;43.514;1.500;2023-10-13T13:27:55;99824.78;;;39.39;26.95
81865;BME280;71313;43.514;1.500;2023-10-13T13:30:21;99816.50;;;40.81;25.90
81865;BME280;71313;43.514;1.500;2023-10-13T13:32:48;99816.69;;;41.77;25.11
81865;BME280;71313;43.514;1.500;2023-10-13T13:35:17;99814.28;;;42.11;24.63
81865;BME280;71313;43.514;1.500;2023-10-13T13:37:44;99817.16;;;42.34;24.28
81865;BME280;71313;43.514;1.500;2023-10-13T13:40:10;99814.97;;;42.44;23.92
81865;BME280;71313;43.514;1.500;2023-10-13T13:42:44;99808.94;;;42.60;23.19
81865;BME280;71313;43.514;1.500;2023-10-13T13:45:17;99817.97;;;42.84;22.78
81865;BME280;71313;43.514;1.500;2023-10-13T13:47:57;99807.69;;;42.88;22.55
81865;BME280;71313;43.514;1.500;2023-10-13T13:50:28;99804.28;;;42.41;22.62